Terminal Aerodrome Forecast
Issued by NWS Wilmington, NC

Home | Current Version | Previous Version | Text Only | Print | Product List | Glossary On
Versions: 1 2 3 4 5 6 7 8 9 10 11 12 13 14 15 16 17 18 19 20 21 22 23 24 25 26 27 28 29 30 31 32 33 34
000
FTUS42 KILM 270500
TAFMYR
TAF
KMYR 270533Z 2706/2806 00000KT 6SM BR SKC
     FM270700 22004KT P6SM FEW100
     FM271100 25008KT P6SM SCT080 WS020/25035KT
     FM271400 29014G20KT P6SM SCT040
     FM272300 33006KT P6SM SKC
      AMD LTD TO CLD VIS AND WIND TIL 271100=

USA.gov is the U.S. government's official web portal to all federal, state and local government web resources and services.